Time;durP1;ratioP1;P1;durP2;ratioP2;P2;SDS_P1;SDS_P2;PMS_P1;PMS_P2;Temp;Humidity;BMP_temperature;BMP_pressure;BME280_temperature;BME280_humidity;BME280_pressure;Samples;Min_cycle;Max_cycle;Signal;HPM_P1;HPM_P2
2023/01/09 00:03:28;;;;;;;2.65;1.50;;;7.90;99.90;;;;;;7302210;32;20241;-60
2023/01/09 00:07:30;;;;;;;5.37;1.33;;;7.80;99.90;;;;;;7297211;32;20179;-59
2023/01/09 00:11:32;;;;;;;1.95;1.15;;;7.80;99.90;;;;;;7286147;32;20121;-59
2023/01/09 00:15:33;;;;;;;2.47;0.60;;;7.80;99.90;;;;;;7300663;32;20190;-59
2023/01/09 00:19:35;;;;;;;0.93;0.40;;;7.60;99.90;;;;;;7299363;32;20095;-59
2023/01/09 00:23:37;;;;;;;1.37;0.45;;;7.60;99.90;;;;;;7298126;32;20096;-59
2023/01/09 00:27:39;;;;;;;0.95;0.40;;;7.40;99.90;;;;;;7295426;32;20112;-60
2023/01/09 00:31:41;;;;;;;1.15;0.20;;;7.30;99.90;;;;;;7295159;32;20286;-59
2023/01/09 00:35:42;;;;;;;1.27;0.20;;;7.20;99.90;;;;;;7296773;32;20520;-59
2023/01/09 00:39:44;;;;;;;1.55;0.20;;;7.20;99.90;;;;;;7301673;32;20147;-59
2023/01/09 00:43:50;;;;;;;1.45;0.20;;;7.20;99.90;;;;;;7283841;32;20179;-59
2023/01/09 00:47:52;;;;;;;0.85;0.20;;;7.10;99.90;;;;;;7296519;32;20211;-58
2023/01/09 00:51:54;;;;;;;1.33;0.40;;;7.20;99.90;;;;;;7299048;32;20212;-59
2023/01/09 00:56:03;;;;;;;1.58;0.30;;;7.10;99.90;;;;;;7296824;32;20185;-58
2023/01/09 01:00:07;;;;;;;0.60;0.10;;;7.20;99.90;;;;;;7296358;32;20158;-59
2023/01/09 01:08:29;;;;;;;1.12;0.10;;;7.10;99.90;;;;;;7295057;32;20260;-59
2023/01/09 01:12:31;;;;;;;1.02;0.10;;;7.00;99.90;;;;;;7297829;32;20172;-59
2023/01/09 01:16:33;;;;;;;0.30;0.10;;;7.00;99.90;;;;;;7298266;32;20152;-59
2023/01/09 01:20:35;;;;;;;0.10;0.00;;;6.90;99.90;;;;;;7293371;32;20100;-59
2023/01/09 01:24:36;;;;;;;2.67;0.20;;;6.80;99.90;;;;;;7299400;32;20107;-59
2023/01/09 01:28:39;;;;;;;0.10;0.00;;;6.80;99.90;;;;;;7281313;32;20458;-59
2023/01/09 01:32:41;;;;;;;0.00;0.00;;;6.70;99.90;;;;;;7299379;32;20104;-59
2023/01/09 01:36:43;;;;;;;0.35;0.10;;;6.70;99.90;;;;;;7298832;32;20653;-59
2023/01/09 01:40:52;;;;;;;0.40;0.10;;;6.70;99.90;;;;;;7297099;32;20095;-59
2023/01/09 01:45:04;;;;;;;0.40;0.10;;;6.70;99.90;;;;;;7294078;32;20179;-60
2023/01/09 01:49:11;;;;;;;0.22;0.20;;;6.70;99.90;;;;;;7296494;32;20624;-60
2023/01/09 01:53:28;;;;;;;0.20;0.10;;;6.70;99.90;;;;;;7295224;32;20210;-60
2023/01/09 01:57:31;;;;;;;0.62;0.22;;;6.70;99.90;;;;;;7284176;32;20329;-59
2023/01/09 02:01:35;;;;;;;1.27;0.40;;;6.70;99.90;;;;;;7300150;32;20462;-59
2023/01/09 02:05:38;;;;;;;0.30;0.13;;;6.80;99.90;;;;;;7297521;32;20119;-59
2023/01/09 02:09:40;;;;;;;0.43;0.20;;;6.80;99.90;;;;;;7297617;32;20187;-58
2023/01/09 02:13:42;;;;;;;3.08;0.37;;;6.70;99.90;;;;;;7298216;32;20442;-59
2023/01/09 02:17:57;;;;;;;0.50;0.28;;;6.80;99.90;;;;;;7296885;32;20249;-59
2023/01/09 02:22:29;;;;;;;1.10;0.37;;;6.70;99.90;;;;;;7296810;32;20100;-61
2023/01/09 02:26:40;;;;;;;1.27;0.30;;;6.80;99.90;;;;;;7297014;32;20108;-60
2023/01/09 02:30:55;;;;;;;0.88;0.30;;;6.80;99.90;;;;;;7285423;32;20171;-59
2023/01/09 02:35:30;;;;;;;2.67;0.40;;;6.70;99.90;;;;;;7298058;32;20126;-60
2023/01/09 02:39:45;;;;;;;2.80;0.50;;;6.70;99.90;;;;;;7291375;32;20122;-60
2023/01/09 02:43:59;;;;;;;2.85;0.40;;;6.60;99.90;;;;;;7296822;32;20215;-58
2023/01/09 02:48:00;;;;;;;1.42;0.40;;;6.60;99.90;;;;;;7294950;32;20546;-59
2023/01/09 02:52:08;;;;;;;1.20;0.37;;;6.50;99.90;;;;;;7293893;32;20401;-58
2023/01/09 02:56:30;;;;;;;1.80;0.30;;;6.60;99.90;;;;;;7297315;32;20122;-59
2023/01/09 03:01:03;;;;;;;2.37;0.50;;;6.70;99.90;;;;;;7291180;32;20118;-59
2023/01/09 03:05:27;;;;;;;1.60;0.60;;;6.80;99.90;;;;;;7292557;32;20563;-59
2023/01/09 03:09:33;;;;;;;2.53;0.60;;;6.80;99.90;;;;;;7290916;32;20520;-59
2023/01/09 03:13:44;;;;;;;2.92;0.70;;;6.90;99.90;;;;;;7296870;32;20118;-58
2023/01/09 03:17:48;;;;;;;1.75;0.77;;;6.90;99.90;;;;;;7293062;32;20471;-58
2023/01/09 03:21:50;;;;;;;3.15;0.88;;;6.90;99.90;;;;;;7296326;32;20287;-59
2023/01/09 03:25:52;;;;;;;3.62;1.25;;;7.00;99.90;;;;;;7299660;32;20138;-59
2023/01/09 03:29:55;;;;;;;4.95;1.50;;;7.00;99.90;;;;;;7300127;32;20129;-59
2023/01/09 03:33:57;;;;;;;5.78;1.27;;;6.90;99.90;;;;;;7295385;32;20167;-59
2023/01/09 03:37:58;;;;;;;3.60;1.12;;;6.90;99.90;;;;;;7293797;32;20191;-59
2023/01/09 03:42:00;;;;;;;3.90;0.95;;;6.80;99.90;;;;;;7295442;32;20162;-59
2023/01/09 03:46:03;;;;;;;5.65;0.98;;;6.70;99.90;;;;;;7296811;32;20119;-60
2023/01/09 03:50:05;;;;;;;3.87;1.05;;;6.60;99.90;;;;;;7297985;32;20108;-59
2023/01/09 03:54:07;;;;;;;3.00;1.08;;;6.60;99.90;;;;;;7296000;32;20111;-58
2023/01/09 03:58:09;;;;;;;4.93;1.08;;;6.50;99.90;;;;;;7298792;32;20096;-59
2023/01/09 04:02:10;;;;;;;3.60;1.02;;;6.40;99.90;;;;;;7295536;32;20108;-60
2023/01/09 04:06:12;;;;;;;7.30;1.08;;;6.30;99.90;;;;;;7298759;32;20159;-59
2023/01/09 04:10:14;;;;;;;2.42;0.90;;;6.30;99.90;;;;;;7299747;32;20210;-59
2023/01/09 04:14:16;;;;;;;4.35;1.00;;;6.20;99.90;;;;;;7287797;32;20101;-59
2023/01/09 04:18:18;;;;;;;5.68;1.12;;;6.10;99.90;;;;;;7297485;32;20122;-59
2023/01/09 04:22:19;;;;;;;5.47;1.10;;;5.90;99.90;;;;;;7298639;32;20253;-59
2023/01/09 04:26:21;;;;;;;5.72;0.98;;;5.80;99.90;;;;;;7295833;32;20235;-60
2023/01/09 04:30:23;;;;;;;4.53;1.02;;;5.80;99.90;;;;;;7278841;32;20377;-59
2023/01/09 04:34:25;;;;;;;6.20;1.17;;;5.80;99.90;;;;;;7298331;32;20107;-59
2023/01/09 04:38:27;;;;;;;4.60;0.77;;;5.70;99.90;;;;;;7289447;32;20139;-59
2023/01/09 04:42:28;;;;;;;4.97;0.90;;;5.70;99.90;;;;;;7298971;32;20131;-61
2023/01/09 04:46:30;;;;;;;2.80;1.00;;;5.60;99.90;;;;;;7296043;32;20122;-60
2023/01/09 04:50:32;;;;;;;4.22;1.10;;;5.60;99.90;;;;;;7299728;32;20100;-59
2023/01/09 04:54:33;;;;;;;7.78;0.95;;;5.60;99.90;;;;;;7300867;32;20177;-59
2023/01/09 04:58:35;;;;;;;3.05;1.00;;;5.60;99.90;;;;;;7293601;32;20178;-59
2023/01/09 05:02:37;;;;;;;8.35;1.05;;;5.60;99.90;;;;;;7297212;32;20105;-59
2023/01/09 05:06:39;;;;;;;5.65;1.37;;;5.50;99.90;;;;;;7297561;32;20708;-60
2023/01/09 05:10:40;;;;;;;6.10;1.30;;;5.50;99.90;;;;;;7298848;32;20127;-60
2023/01/09 05:14:42;;;;;;;5.28;1.00;;;5.60;99.90;;;;;;7296991;32;20108;-60
2023/01/09 05:18:44;;;;;;;6.70;0.98;;;5.80;99.90;;;;;;7296538;32;20182;-62
2023/01/09 05:22:45;;;;;;;6.80;0.57;;;5.80;99.90;;;;;;7297564;32;20121;-59
2023/01/09 05:26:47;;;;;;;4.07;0.80;;;5.90;99.90;;;;;;7297698;32;20300;-59
2023/01/09 05:30:49;;;;;;;11.35;0.90;;;6.00;99.90;;;;;;7299312;32;20096;-62
2023/01/09 05:34:50;;;;;;;6.10;0.80;;;6.10;99.90;;;;;;7295189;32;20099;-60
2023/01/09 05:38:52;;;;;;;4.90;0.77;;;6.20;99.90;;;;;;7297087;32;20213;-59
2023/01/09 05:42:54;;;;;;;3.28;0.80;;;6.30;99.90;;;;;;7296551;32;20292;-59
2023/01/09 05:46:55;;;;;;;3.92;0.60;;;6.30;99.90;;;;;;7293133;32;20118;-60
2023/01/09 05:50:57;;;;;;;4.10;0.55;;;6.30;99.90;;;;;;7296858;32;20589;-61
2023/01/09 05:54:59;;;;;;;6.95;0.93;;;6.40;99.90;;;;;;7297150;32;20166;-61
2023/01/09 05:59:00;;;;;;;3.53;1.00;;;6.50;99.90;;;;;;7296380;32;20219;-60
2023/01/09 06:03:02;;;;;;;14.05;5.37;;;6.50;99.90;;;;;;7298917;32;20131;-60
2023/01/09 06:07:04;;;;;;;5.35;0.80;;;6.50;99.90;;;;;;7290486;32;20293;-60
2023/01/09 06:11:06;;;;;;;3.80;0.93;;;6.60;99.90;;;;;;7297186;32;20230;-60
2023/01/09 06:15:08;;;;;;;5.53;0.90;;;6.60;99.90;;;;;;7298855;32;20104;-60
2023/01/09 06:19:09;;;;;;;5.53;0.90;;;6.60;99.90;;;;;;7295349;32;20448;-61
2023/01/09 06:23:11;;;;;;;3.30;1.12;;;6.60;99.90;;;;;;7295980;32;20132;-60
2023/01/09 06:27:14;;;;;;;8.57;0.90;;;6.60;99.90;;;;;;7296372;32;20209;-60
2023/01/09 06:31:16;;;;;;;6.22;0.85;;;6.60;99.90;;;;;;7294463;32;20135;-61
2023/01/09 06:35:19;;;;;;;5.18;0.75;;;6.60;99.90;;;;;;7295665;32;20213;-61
2023/01/09 06:39:21;;;;;;;6.25;1.00;;;6.60;99.90;;;;;;7293154;32;20223;-61
2023/01/09 06:43:23;;;;;;;6.60;0.93;;;6.60;99.90;;;;;;7293572;32;20156;-62
2023/01/09 06:47:24;;;;;;;9.38;0.65;;;6.60;99.90;;;;;;7294929;32;20687;-60
2023/01/09 06:51:26;;;;;;;6.85;0.95;;;6.70;99.90;;;;;;7300341;32;20233;-60
2023/01/09 06:55:28;;;;;;;4.68;0.90;;;6.70;99.90;;;;;;7287663;32;20505;-60
2023/01/09 06:59:29;;;;;;;4.25;0.80;;;6.70;99.90;;;;;;7300662;32;20126;-60
2023/01/09 07:03:31;;;;;;;4.03;0.73;;;6.70;99.90;;;;;;7295398;32;20138;-60
2023/01/09 07:07:34;;;;;;;4.35;0.75;;;6.80;99.90;;;;;;7301406;32;20710;-61
2023/01/09 07:11:36;;;;;;;5.18;0.77;;;6.70;99.90;;;;;;7298340;32;20128;-60
2023/01/09 07:15:38;;;;;;;11.15;0.95;;;6.80;99.90;;;;;;7296516;32;20503;-61
2023/01/09 07:19:40;;;;;;;2.65;0.60;;;6.80;99.90;;;;;;7298265;32;20122;-61
2023/01/09 07:23:41;;;;;;;3.87;0.82;;;6.80;99.90;;;;;;7292652;32;20308;-62
2023/01/09 07:27:43;;;;;;;5.43;0.75;;;6.80;99.90;;;;;;7295168;32;20130;-60
2023/01/09 07:31:45;;;;;;;6.03;1.10;;;6.90;99.90;;;;;;7298314;32;20095;-60
2023/01/09 07:35:47;;;;;;;3.30;0.77;;;6.90;99.90;;;;;;7304226;32;20143;-62
2023/01/09 07:39:49;;;;;;;5.03;0.80;;;6.90;99.90;;;;;;7298432;32;20258;-61
2023/01/09 07:43:50;;;;;;;4.60;0.73;;;6.80;99.90;;;;;;7302148;32;20132;-61
2023/01/09 07:47:52;;;;;;;4.15;0.90;;;6.80;99.90;;;;;;7281456;32;20179;-62
2023/01/09 07:51:54;;;;;;;7.47;1.10;;;6.90;99.90;;;;;;7292911;32;20118;-62
2023/01/09 07:55:56;;;;;;;6.50;0.90;;;6.90;99.90;;;;;;7297279;32;20141;-63
2023/01/09 07:59:59;;;;;;;3.78;1.00;;;6.90;99.90;;;;;;7290745;32;20183;-64
2023/01/09 08:04:01;;;;;;;6.05;0.77;;;6.90;99.90;;;;;;7293727;32;20545;-62
2023/01/09 08:08:03;;;;;;;5.43;0.88;;;7.00;99.90;;;;;;7293973;32;20567;-62
2023/01/09 08:12:05;;;;;;;6.75;0.90;;;7.00;99.90;;;;;;7302368;32;20722;-62
2023/01/09 08:16:06;;;;;;;8.40;1.10;;;6.90;99.90;;;;;;7298156;32;20104;-62
2023/01/09 08:20:10;;;;;;;4.57;0.85;;;7.00;99.90;;;;;;7298977;32;20104;-62
2023/01/09 08:24:12;;;;;;;6.10;0.98;;;7.10;99.90;;;;;;7293269;32;20230;-61
2023/01/09 08:28:14;;;;;;;7.18;1.12;;;7.10;99.90;;;;;;7297202;32;20175;-61
2023/01/09 08:32:16;;;;;;;6.30;1.00;;;7.20;99.90;;;;;;7294341;32;20171;-61
2023/01/09 08:36:17;;;;;;;5.72;1.00;;;7.20;99.90;;;;;;7292176;32;20213;-62
2023/01/09 08:40:19;;;;;;;5.37;0.85;;;7.30;99.90;;;;;;7296815;32;20233;-61
2023/01/09 08:48:42;;;;;;;5.43;0.80;;;7.20;99.90;;;;;;7291264;32;20447;-61
2023/01/09 08:52:44;;;;;;;6.60;1.10;;;7.20;99.90;;;;;;7296020;32;20103;-61
2023/01/09 08:56:46;;;;;;;8.20;1.00;;;7.20;99.90;;;;;;7299164;32;20111;-62
2023/01/09 09:00:47;;;;;;;8.75;1.77;;;7.20;99.90;;;;;;7291150;32;20227;-62
2023/01/09 09:04:51;;;;;;;3.80;1.08;;;7.20;99.90;;;;;;7299936;32;20099;-61
2023/01/09 09:08:53;;;;;;;5.50;1.05;;;7.20;99.90;;;;;;7285177;32;20191;-60
2023/01/09 09:12:56;;;;;;;6.62;1.20;;;7.20;99.90;;;;;;7296709;32;20120;-60
2023/01/09 09:16:58;;;;;;;7.95;1.00;;;7.30;99.90;;;;;;7297862;32;20199;-62
2023/01/09 09:21:00;;;;;;;5.93;0.80;;;7.30;99.90;;;;;;7296479;32;20176;-61
2023/01/09 09:25:03;;;;;;;2.83;0.70;;;7.40;99.90;;;;;;7298690;32;20111;-61
2023/01/09 09:29:05;;;;;;;8.40;1.62;;;7.50;99.90;;;;;;7298245;32;20207;-61
2023/01/09 09:33:07;;;;;;;9.13;0.93;;;7.50;99.90;;;;;;7297026;32;20640;-61
2023/01/09 09:37:09;;;;;;;4.05;0.73;;;7.60;99.90;;;;;;7297716;32;20450;-61
2023/01/09 09:45:59;;;;;;;6.82;0.88;;;7.60;99.90;;;;;;7297301;32;20431;-62
2023/01/09 09:50:26;;;;;;;4.70;1.20;;;7.70;99.90;;;;;;7294314;32;20604;-62
2023/01/09 09:54:37;;;;;;;5.30;0.87;;;7.90;99.90;;;;;;7297842;32;20199;-62
2023/01/09 09:58:42;;;;;;;2.65;0.47;;;8.10;99.90;;;;;;7296734;32;20128;-61
2023/01/09 10:02:50;;;;;;;4.78;0.80;;;8.20;99.90;;;;;;7291663;32;20599;-61
2023/01/09 10:06:58;;;;;;;4.87;1.00;;;8.20;99.90;;;;;;7292833;32;20175;-61
2023/01/09 10:11:00;;;;;;;5.10;1.00;;;8.10;99.90;;;;;;7295385;32;20128;-62
2023/01/09 10:15:17;;;;;;;4.75;0.95;;;8.10;99.90;;;;;;7297411;32;20522;-62
2023/01/09 10:19:25;;;;;;;7.12;0.95;;;8.10;99.90;;;;;;7295595;32;20331;-61
2023/01/09 10:23:27;;;;;;;2.05;0.95;;;8.00;99.90;;;;;;7295038;32;20099;-62
2023/01/09 10:27:47;;;;;;;4.20;0.60;;;8.10;99.90;;;;;;7296096;32;20259;-60
2023/01/09 10:32:11;;;;;;;2.90;0.75;;;8.10;99.90;;;;;;7294256;32;20108;-62
2023/01/09 10:36:38;;;;;;;7.37;0.80;;;8.20;99.90;;;;;;7287893;32;20769;-62
2023/01/09 10:40:49;;;;;;;4.87;1.00;;;8.10;99.90;;;;;;7291853;32;20129;-62
2023/01/09 10:45:36;;;;;;;6.10;0.60;;;8.20;99.90;;;;;;7292066;32;20219;-61
2023/01/09 10:49:38;;;;;;;3.58;0.80;;;8.10;99.90;;;;;;7217168;32;20122;-64
2023/01/09 10:53:46;;;;;;;4.65;0.90;;;8.10;99.90;;;;;;7292606;32;20524;-62
2023/01/09 10:58:00;;;;;;;5.53;0.80;;;8.00;99.90;;;;;;7290616;32;20623;-62
2023/01/09 11:02:02;;;;;;;4.60;0.95;;;8.10;99.90;;;;;;7286896;32;20100;-61
2023/01/09 11:06:21;;;;;;;4.95;0.98;;;8.10;99.90;;;;;;7292457;32;20127;-61
2023/01/09 11:10:42;;;;;;;4.15;0.77;;;8.20;99.90;;;;;;7295321;32;20591;-61
2023/01/09 11:14:44;;;;;;;3.20;0.68;;;8.20;99.90;;;;;;7296125;32;20101;-65
2023/01/09 11:18:56;;;;;;;4.62;0.90;;;8.30;99.90;;;;;;7293005;32;20583;-62
2023/01/09 11:22:58;;;;;;;5.93;0.95;;;8.50;99.90;;;;;;7287381;32;20114;-61
2023/01/09 11:27:22;;;;;;;5.82;1.08;;;8.60;99.90;;;;;;7280488;32;20170;-61
2023/01/09 11:31:24;;;;;;;4.45;0.70;;;8.60;99.90;;;;;;7285607;32;20124;-62
2023/01/09 11:35:27;;;;;;;5.70;1.23;;;8.70;99.90;;;;;;7277077;32;20131;-62
2023/01/09 11:39:32;;;;;;;6.20;0.93;;;8.60;99.90;;;;;;7294420;32;20693;-63
2023/01/09 11:43:38;;;;;;;4.45;0.80;;;8.50;99.90;;;;;;7296952;32;20509;-62
2023/01/09 11:47:40;;;;;;;5.03;0.87;;;8.40;99.90;;;;;;7295972;32;20797;-62
2023/01/09 11:51:43;;;;;;;5.37;0.82;;;8.40;99.90;;;;;;7292527;32;20754;-63
2023/01/09 11:55:55;;;;;;;3.67;0.85;;;8.40;99.90;;;;;;7297226;32;20190;-62
2023/01/09 12:00:01;;;;;;;4.37;1.12;;;8.30;99.90;;;;;;7293096;32;20518;-63
2023/01/09 12:04:22;;;;;;;3.10;0.82;;;8.10;99.90;;;;;;7292483;32;20128;-63
2023/01/09 12:08:52;;;;;;;1.95;0.65;;;8.10;99.90;;;;;;7296720;32;20270;-61
2023/01/09 12:13:22;;;;;;;6.70;1.10;;;8.20;99.90;;;;;;7294943;32;20573;-62
2023/01/09 12:17:52;;;;;;;3.53;0.62;;;8.20;99.90;;;;;;7294162;32;20111;-63
2023/01/09 12:22:39;;;;;;;3.75;0.73;;;8.20;99.90;;;;;;7301808;32;20297;-61
2023/01/09 12:27:03;;;;;;;3.03;0.80;;;8.20;99.90;;;;;;7226822;32;20104;-61
2023/01/09 12:31:07;;;;;;;2.95;1.08;;;8.30;99.90;;;;;;7290438;32;20994;-62
2023/01/09 12:35:36;;;;;;;3.17;0.62;;;8.30;99.90;;;;;;7290980;32;20100;-62
2023/01/09 12:39:46;;;;;;;2.58;0.60;;;8.40;99.90;;;;;;7292059;32;20932;-63
2023/01/09 12:44:02;;;;;;;2.20;0.75;;;8.50;99.90;;;;;;7294219;32;20124;-62
2023/01/09 12:48:23;;;;;;;3.17;0.90;;;8.20;99.90;;;;;;7293601;32;20214;-63
2023/01/09 12:52:37;;;;;;;2.28;0.70;;;8.20;99.90;;;;;;7290000;32;20202;-63
2023/01/09 12:56:44;;;;;;;3.25;0.77;;;8.30;99.90;;;;;;7294439;32;20104;-62
2023/01/09 13:00:49;;;;;;;3.75;0.80;;;8.10;99.90;;;;;;7295113;32;20192;-63
2023/01/09 13:05:01;;;;;;;2.45;1.12;;;8.20;99.90;;;;;;7295128;32;20659;-58
2023/01/09 13:09:18;;;;;;;5.70;1.10;;;8.20;99.90;;;;;;7295084;32;20128;-63
2023/01/09 13:13:30;;;;;;;2.47;0.90;;;8.20;99.90;;;;;;7293779;32;20119;-63
2023/01/09 13:17:48;;;;;;;3.70;1.10;;;8.10;99.90;;;;;;7296627;32;20100;-62
2023/01/09 13:21:51;;;;;;;3.97;1.00;;;8.10;99.90;;;;;;7294494;32;20479;-63
2023/01/09 13:25:56;;;;;;;4.18;0.95;;;8.10;99.90;;;;;;7295961;32;20100;-62
2023/01/09 13:30:24;;;;;;;3.28;0.90;;;8.20;99.90;;;;;;7282779;32;20306;-62
2023/01/09 13:34:29;;;;;;;2.80;1.00;;;8.10;99.90;;;;;;7287811;32;20220;-62
2023/01/09 13:38:33;;;;;;;4.10;1.12;;;8.10;99.90;;;;;;7293535;32;20171;-62
2023/01/09 13:42:35;;;;;;;3.72;1.10;;;8.00;99.90;;;;;;7294325;32;20203;-63
2023/01/09 13:46:43;;;;;;;4.57;1.10;;;7.80;99.90;;;;;;7287587;32;20096;-62
2023/01/09 13:50:47;;;;;;;5.40;1.12;;;7.70;99.90;;;;;;7292084;32;20103;-63
2023/01/09 13:55:15;;;;;;;4.85;1.27;;;7.80;99.90;;;;;;7287719;32;20462;-63
2023/01/09 13:59:27;;;;;;;;;;;7.80;99.90;;;;;;7282800;32;20131;-63
2023/01/09 14:03:35;;;;;;;4.72;1.10;;;7.90;99.90;;;;;;7296056;32;20021;-63
2023/01/09 14:07:41;;;;;;;9.35;1.30;;;7.90;99.90;;;;;;7294552;32;20195;-63
2023/01/09 14:11:44;;;;;;;6.70;1.30;;;7.90;99.90;;;;;;7289696;32;20276;-62
2023/01/09 14:15:48;;;;;;;3.78;1.00;;;7.90;99.90;;;;;;7277199;32;20206;-62
2023/01/09 14:19:55;;;;;;;5.53;1.20;;;7.90;99.90;;;;;;7258639;32;20116;-63
2023/01/09 14:24:05;;;;;;;6.82;1.23;;;7.90;99.90;;;;;;7268956;32;20178;-62
2023/01/09 14:28:26;;;;;;;2.47;1.15;;;7.90;99.90;;;;;;7287201;32;20721;-61
2023/01/09 14:32:32;;;;;;;8.45;1.90;;;7.90;99.90;;;;;;7268646;32;20143;-61
2023/01/09 14:36:36;;;;;;;4.87;1.65;;;7.80;99.90;;;;;;7280496;32;20184;-62
2023/01/09 14:40:43;;;;;;;6.70;1.30;;;7.70;99.90;;;;;;7265634;32;20108;-63
2023/01/09 14:44:59;;;;;;;4.60;1.50;;;7.70;99.90;;;;;;7280428;32;20651;-62
2023/01/09 14:49:29;;;;;;;6.57;1.77;;;7.70;99.90;;;;;;7295275;32;20667;-62
2023/01/09 14:53:35;;;;;;;4.85;1.33;;;7.70;99.90;;;;;;7291276;32;20545;-63
2023/01/09 14:57:37;;;;;;;4.60;1.60;;;7.70;99.90;;;;;;7266976;32;20100;-62
2023/01/09 15:01:44;;;;;;;3.65;1.20;;;7.70;99.90;;;;;;7297314;32;20111;-62
2023/01/09 15:05:47;;;;;;;;;;;7.70;99.90;;;;;;7281107;32;20645;-62
2023/01/09 15:10:01;;;;;;;5.37;1.48;;;7.70;99.90;;;;;;7293162;32;20007;-62
2023/01/09 15:14:04;;;;;;;4.18;1.75;;;7.70;99.90;;;;;;7284419;32;20124;-62
2023/01/09 15:18:09;;;;;;;4.95;2.08;;;7.70;99.90;;;;;;7299264;32;22049;-62
2023/01/09 15:22:47;;;;;;;6.18;1.92;;;7.70;99.90;;;;;;7284325;32;20113;-63
2023/01/09 15:26:57;;;;;;;8.00;1.85;;;7.70;99.90;;;;;;7280905;32;20197;-63
2023/01/09 15:31:03;;;;;;;4.45;1.50;;;7.70;99.90;;;;;;7278228;32;20567;-61
2023/01/09 15:35:13;;;;;;;4.05;1.62;;;7.70;99.90;;;;;;7288220;32;20120;-63
2023/01/09 15:39:23;;;;;;;3.17;1.25;;;7.70;99.90;;;;;;7295348;32;20385;-63
2023/01/09 15:43:28;;;;;;;8.13;1.92;;;7.60;99.90;;;;;;7296763;32;20100;-62
2023/01/09 15:47:33;;;;;;;8.63;1.60;;;7.60;99.90;;;;;;7300319;32;20387;-61
2023/01/09 15:51:35;;;;;;;5.03;1.80;;;7.50;99.90;;;;;;7301273;32;20701;-61
2023/01/09 15:55:37;;;;;;;7.57;2.10;;;7.50;99.90;;;;;;7302097;32;20191;-60
2023/01/09 15:59:39;;;;;;;6.30;2.08;;;7.40;99.90;;;;;;7299552;32;20168;-61
2023/01/09 16:03:42;;;;;;;9.40;2.20;;;7.40;99.90;;;;;;7298807;32;20130;-60
2023/01/09 16:07:48;;;;;;;9.48;1.92;;;7.40;99.90;;;;;;7297197;32;20120;-60
2023/01/09 16:11:55;;;;;;;5.40;2.30;;;7.40;99.90;;;;;;7298120;32;20120;-60
2023/01/09 16:15:59;;;;;;;5.93;2.40;;;7.30;99.90;;;;;;7296553;32;20281;-59
2023/01/09 16:20:24;;;;;;;4.82;2.10;;;7.30;99.90;;;;;;7299212;32;20135;-60
2023/01/09 16:24:33;;;;;;;9.88;2.25;;;7.20;99.90;;;;;;7296505;32;20128;-60
2023/01/09 16:28:35;;;;;;;7.50;2.28;;;7.30;99.90;;;;;;7298659;32;20126;-60
2023/01/09 16:32:50;;;;;;;5.03;2.30;;;7.20;99.90;;;;;;7299099;32;20639;-60
2023/01/09 16:36:51;;;;;;;8.80;3.85;;;7.20;99.90;;;;;;7296876;32;20115;-60
2023/01/09 16:45:32;;;;;;;9.13;2.58;;;7.20;99.90;;;;;;7296754;32;20356;-59
2023/01/09 16:49:34;;;;;;;7.62;2.35;;;7.20;99.90;;;;;;7298304;32;20533;-60
2023/01/09 16:53:36;;;;;;;6.82;2.95;;;7.20;99.90;;;;;;7299335;32;20340;-60
2023/01/09 16:57:40;;;;;;;7.05;2.90;;;7.10;99.90;;;;;;7282103;32;20599;-60
2023/01/09 17:01:42;;;;;;;4.47;2.67;;;7.00;99.90;;;;;;7294177;32;20100;-60
2023/01/09 17:05:44;;;;;;;6.20;2.70;;;7.00;99.90;;;;;;7296465;32;20146;-60
2023/01/09 17:09:47;;;;;;;7.82;2.97;;;7.00;99.90;;;;;;7298226;32;20217;-59
2023/01/09 17:13:49;;;;;;;7.43;2.97;;;7.00;99.90;;;;;;7297155;32;20164;-60
2023/01/09 17:17:51;;;;;;;6.30;3.08;;;6.90;99.90;;;;;;7295554;32;20108;-60
2023/01/09 17:21:53;;;;;;;7.45;3.08;;;6.90;99.90;;;;;;7296939;32;20129;-60
2023/01/09 17:30:18;;;;;;;9.88;4.78;;;6.80;99.90;;;;;;7296530;32;20100;-60
2023/01/09 17:34:20;;;;;;;14.90;6.20;;;6.70;99.90;;;;;;7296788;32;20547;-60
2023/01/09 17:38:22;;;;;;;14.20;6.10;;;6.70;99.90;;;;;;7296868;32;20107;-60
2023/01/09 17:42:24;;;;;;;12.10;5.78;;;6.70;99.90;;;;;;7295795;32;20127;-59
2023/01/09 17:46:34;;;;;;;9.73;4.50;;;6.80;99.90;;;;;;7296410;32;20522;-59
2023/01/09 17:50:36;;;;;;;6.78;3.47;;;6.70;99.90;;;;;;7297578;32;20195;-59
2023/01/09 17:54:38;;;;;;;9.35;2.80;;;6.70;99.90;;;;;;7294830;32;20108;-59
2023/01/09 17:58:40;;;;;;;6.87;2.83;;;6.70;99.90;;;;;;7297343;32;20119;-60
2023/01/09 18:02:42;;;;;;;12.07;3.15;;;6.70;99.90;;;;;;7295211;32;20186;-59
2023/01/09 18:06:43;;;;;;;13.98;3.05;;;6.70;99.90;;;;;;7297758;32;20152;-59
2023/01/09 18:10:47;;;;;;;11.63;3.72;;;6.60;99.90;;;;;;7295035;32;20126;-59
2023/01/09 18:14:49;;;;;;;9.65;3.08;;;6.70;99.90;;;;;;7294006;32;20234;-62
2023/01/09 18:18:52;;;;;;;12.68;3.72;;;6.60;99.90;;;;;;7295937;32;20195;-61
2023/01/09 18:22:54;;;;;;;9.73;3.40;;;6.60;99.90;;;;;;7295434;32;20112;-61
2023/01/09 18:26:55;;;;;;;12.13;3.30;;;6.60;99.90;;;;;;7296783;32;20264;-61
2023/01/09 18:30:57;;;;;;;9.15;2.55;;;6.60;99.90;;;;;;7296398;32;20543;-59
2023/01/09 18:34:59;;;;;;;8.98;4.57;;;6.60;99.90;;;;;;7297328;32;20700;-60
2023/01/09 18:39:03;;;;;;;16.48;4.85;;;6.50;99.90;;;;;;7295154;32;20449;-60
2023/01/09 18:43:06;;;;;;;10.65;4.90;;;6.50;99.90;;;;;;7278490;32;20092;-59
2023/01/09 18:47:08;;;;;;;9.27;3.78;;;6.50;99.90;;;;;;7298266;32;20195;-60
2023/01/09 18:51:10;;;;;;;8.68;3.28;;;6.40;99.90;;;;;;7299793;32;20124;-60
2023/01/09 18:55:11;;;;;;;12.07;3.97;;;6.40;99.90;;;;;;7296426;32;20095;-60
2023/01/09 18:59:13;;;;;;;12.50;4.30;;;6.40;99.90;;;;;;7300069;32;20165;-60
2023/01/09 19:03:15;;;;;;;14.18;7.45;;;6.40;99.90;;;;;;7298292;32;20446;-59
2023/01/09 19:07:16;;;;;;;15.60;4.97;;;6.40;99.90;;;;;;7297588;32;20607;-59
2023/01/09 19:11:18;;;;;;;14.02;4.35;;;6.50;99.90;;;;;;7301795;32;20737;-59
2023/01/09 19:15:20;;;;;;;9.23;3.97;;;6.50;99.90;;;;;;7304021;32;20477;-60
2023/01/09 19:19:21;;;;;;;9.75;4.50;;;6.50;99.90;;;;;;7298089;32;20226;-60
2023/01/09 19:23:23;;;;;;;17.35;5.53;;;6.50;99.90;;;;;;7284901;32;20138;-61
2023/01/09 19:27:29;;;;;;;12.60;4.47;;;6.60;99.90;;;;;;7298542;32;20111;-60
2023/01/09 19:31:31;;;;;;;11.27;3.80;;;6.60;99.90;;;;;;7301388;32;20213;-60
2023/01/09 19:35:33;;;;;;;10.68;4.00;;;6.60;99.90;;;;;;7296628;32;20755;-60
2023/01/09 19:39:36;;;;;;;13.20;4.55;;;6.60;99.90;;;;;;7282905;32;20191;-60
2023/01/09 19:43:38;;;;;;;10.32;4.62;;;6.50;99.90;;;;;;7299224;32;20431;-61
2023/01/09 19:47:41;;;;;;;9.55;4.75;;;6.50;99.90;;;;;;7292092;32;20145;-61
2023/01/09 19:51:44;;;;;;;9.77;4.20;;;6.50;99.90;;;;;;7298709;32;20092;-61
2023/01/09 19:55:46;;;;;;;8.75;4.60;;;6.50;99.90;;;;;;7288250;32;20183;-63
2023/01/09 19:59:48;;;;;;;14.13;5.15;;;6.40;99.90;;;;;;7286755;32;20239;-62
2023/01/09 20:03:50;;;;;;;11.98;5.43;;;6.40;99.90;;;;;;7297622;32;20211;-63
2023/01/09 20:07:54;;;;;;;7.55;5.07;;;6.40;99.90;;;;;;7294386;32;20249;-63
2023/01/09 20:11:55;;;;;;;13.75;5.30;;;6.50;99.90;;;;;;7295739;32;20116;-62
2023/01/09 20:15:59;;;;;;;11.23;5.12;;;6.60;99.90;;;;;;7292604;32;20293;-62
2023/01/09 20:20:00;;;;;;;11.73;5.55;;;6.50;99.90;;;;;;7299832;32;20290;-62
2023/01/09 20:24:06;;;;;;;15.35;6.50;;;6.60;99.90;;;;;;7294888;32;20293;-62
2023/01/09 20:28:08;;;;;;;12.13;6.78;;;6.60;99.90;;;;;;7286119;32;20179;-61
2023/01/09 20:32:10;;;;;;;11.85;6.97;;;6.60;99.90;;;;;;7294473;32;20526;-63
2023/01/09 20:36:12;;;;;;;16.60;7.00;;;6.60;99.90;;;;;;7297669;32;20255;-59
2023/01/09 20:40:13;;;;;;;15.27;8.57;;;6.60;99.90;;;;;;7296441;32;20208;-59
2023/01/09 20:44:15;;;;;;;13.45;6.80;;;6.60;99.90;;;;;;7296584;32;20234;-60
2023/01/09 20:48:17;;;;;;;14.35;7.05;;;6.50;99.90;;;;;;7289878;32;20140;-62
2023/01/09 20:52:21;;;;;;;15.02;7.60;;;6.60;99.90;;;;;;7297202;32;20234;-62
2023/01/09 20:56:27;;;;;;;12.25;6.97;;;6.50;99.90;;;;;;7295570;32;20250;-62
2023/01/09 21:00:30;;;;;;;10.48;6.75;;;6.40;99.90;;;;;;7293649;32;20199;-60
2023/01/09 21:04:32;;;;;;;11.60;5.95;;;6.50;99.90;;;;;;7293837;32;20202;-60
2023/01/09 21:08:34;;;;;;;15.98;6.72;;;6.50;99.90;;;;;;7298058;32;20112;-61
2023/01/09 21:12:37;;;;;;;13.43;6.43;;;6.50;99.90;;;;;;7295628;32;20610;-58
2023/01/09 21:16:38;;;;;;;11.02;5.75;;;6.40;99.90;;;;;;7292473;32;20112;-59
2023/01/09 21:20:40;;;;;;;9.07;5.12;;;6.40;99.90;;;;;;7293181;32;20238;-59
2023/01/09 21:24:42;;;;;;;15.00;4.85;;;6.40;99.90;;;;;;7300291;32;20783;-60
2023/01/09 21:28:45;;;;;;;9.63;5.10;;;6.40;99.90;;;;;;7297821;32;20116;-60
2023/01/09 21:32:47;;;;;;;9.48;4.95;;;6.40;99.90;;;;;;7290762;32;20654;-59
2023/01/09 21:36:49;;;;;;;8.90;3.90;;;6.30;99.90;;;;;;7290030;32;20159;-61
2023/01/09 21:40:52;;;;;;;8.48;3.42;;;6.40;99.90;;;;;;7293725;32;20138;-61
2023/01/09 21:49:14;;;;;;;8.80;3.83;;;6.30;99.90;;;;;;7291640;32;20246;-60
2023/01/09 21:53:15;;;;;;;7.05;2.95;;;6.30;99.90;;;;;;7297291;32;20183;-60
2023/01/09 21:57:17;;;;;;;8.70;3.30;;;6.20;99.90;;;;;;7296989;32;20181;-60
2023/01/09 22:01:19;;;;;;;10.75;3.08;;;6.30;99.90;;;;;;7293067;32;20133;-61